sensor_id;sensor_type;location;lat;lon;timestamp;P1;durP1;ratioP1;P2;durP2;ratioP2
3733;SDS011;1882;52.256;8.874;2023-01-19T00:00:53;14.67;;;8.03;;
3733;SDS011;1882;52.256;8.874;2023-01-19T00:03:20;12.50;;;7.77;;
3733;SDS011;1882;52.256;8.874;2023-01-19T00:05:47;15.03;;;8.20;;
3733;SDS011;1882;52.256;8.874;2023-01-19T00:08:13;13.83;;;7.50;;
3733;SDS011;1882;52.256;8.874;2023-01-19T00:10:47;16.20;;;8.27;;
3733;SDS011;1882;52.256;8.874;2023-01-19T00:13:14;14.97;;;8.73;;
3733;SDS011;1882;52.256;8.874;2023-01-19T00:15:41;13.00;;;8.17;;
3733;SDS011;1882;52.256;8.874;2023-01-19T00:18:15;14.00;;;7.53;;
3733;SDS011;1882;52.256;8.874;2023-01-19T00:20:44;12.23;;;7.87;;
3733;SDS011;1882;52.256;8.874;2023-01-19T00:23:11;13.00;;;7.83;;
3733;SDS011;1882;52.256;8.874;2023-01-19T00:25:47;12.37;;;7.20;;
3733;SDS011;1882;52.256;8.874;2023-01-19T00:28:18;14.80;;;7.57;;
3733;SDS011;1882;52.256;8.874;2023-01-19T00:30:54;13.70;;;7.30;;
3733;SDS011;1882;52.256;8.874;2023-01-19T00:33:20;13.83;;;7.50;;
3733;SDS011;1882;52.256;8.874;2023-01-19T00:35:51;15.93;;;8.60;;
3733;SDS011;1882;52.256;8.874;2023-01-19T00:38:20;16.00;;;7.57;;
3733;SDS011;1882;52.256;8.874;2023-01-19T00:40:49;14.33;;;8.17;;
3733;SDS011;1882;52.256;8.874;2023-01-19T00:43:15;15.43;;;8.60;;
3733;SDS011;1882;52.256;8.874;2023-01-19T00:45:42;14.57;;;8.17;;
3733;SDS011;1882;52.256;8.874;2023-01-19T00:48:10;13.63;;;8.07;;
3733;SDS011;1882;52.256;8.874;2023-01-19T00:50:39;12.67;;;7.07;;
3733;SDS011;1882;52.256;8.874;2023-01-19T00:53:06;17.10;;;7.87;;
3733;SDS011;1882;52.256;8.874;2023-01-19T00:55:33;17.03;;;8.20;;
3733;SDS011;1882;52.256;8.874;2023-01-19T00:57:59;15.77;;;9.00;;
3733;SDS011;1882;52.256;8.874;2023-01-19T01:00:28;12.80;;;7.87;;
3733;SDS011;1882;52.256;8.874;2023-01-19T01:02:55;16.63;;;8.20;;
3733;SDS011;1882;52.256;8.874;2023-01-19T01:05:24;18.13;;;7.43;;
3733;SDS011;1882;52.256;8.874;2023-01-19T01:07:51;18.60;;;8.90;;
3733;SDS011;1882;52.256;8.874;2023-01-19T01:10:19;11.77;;;7.87;;
3733;SDS011;1882;52.256;8.874;2023-01-19T01:12:47;14.70;;;8.33;;
3733;SDS011;1882;52.256;8.874;2023-01-19T01:15:23;18.20;;;8.80;;
3733;SDS011;1882;52.256;8.874;2023-01-19T01:17:51;18.97;;;9.47;;
3733;SDS011;1882;52.256;8.874;2023-01-19T01:20:19;15.83;;;8.77;;
3733;SDS011;1882;52.256;8.874;2023-01-19T01:22:52;13.70;;;8.07;;
3733;SDS011;1882;52.256;8.874;2023-01-19T01:25:20;17.33;;;9.00;;
3733;SDS011;1882;52.256;8.874;2023-01-19T01:27:49;14.80;;;8.90;;
3733;SDS011;1882;52.256;8.874;2023-01-19T01:30:19;14.83;;;8.67;;
3733;SDS011;1882;52.256;8.874;2023-01-19T01:32:46;16.97;;;9.30;;
3733;SDS011;1882;52.256;8.874;2023-01-19T01:35:20;15.73;;;8.43;;
3733;SDS011;1882;52.256;8.874;2023-01-19T01:37:47;17.90;;;8.93;;
3733;SDS011;1882;52.256;8.874;2023-01-19T01:40:17;18.50;;;9.30;;
3733;SDS011;1882;52.256;8.874;2023-01-19T01:42:47;17.03;;;8.93;;
3733;SDS011;1882;52.256;8.874;2023-01-19T01:47:50;15.60;;;9.40;;
3733;SDS011;1882;52.256;8.874;2023-01-19T01:50:20;14.67;;;8.67;;
3733;SDS011;1882;52.256;8.874;2023-01-19T01:56:02;22.97;;;9.23;;
3733;SDS011;1882;52.256;8.874;2023-01-19T01:58:43;14.83;;;8.60;;
3733;SDS011;1882;52.256;8.874;2023-01-19T02:01:10;17.23;;;9.17;;
3733;SDS011;1882;52.256;8.874;2023-01-19T02:03:56;18.17;;;9.30;;
3733;SDS011;1882;52.256;8.874;2023-01-19T02:06:23;20.80;;;9.77;;
3733;SDS011;1882;52.256;8.874;2023-01-19T02:08:58;18.97;;;8.90;;
3733;SDS011;1882;52.256;8.874;2023-01-19T02:11:47;18.00;;;9.47;;
3733;SDS011;1882;52.256;8.874;2023-01-19T02:14:33;18.30;;;9.87;;
3733;SDS011;1882;52.256;8.874;2023-01-19T02:17:02;18.93;;;8.97;;
3733;SDS011;1882;52.256;8.874;2023-01-19T02:19:30;16.73;;;9.87;;
3733;SDS011;1882;52.256;8.874;2023-01-19T02:22:03;17.13;;;10.03;;
3733;SDS011;1882;52.256;8.874;2023-01-19T02:24:37;18.17;;;9.87;;
3733;SDS011;1882;52.256;8.874;2023-01-19T02:27:04;19.93;;;9.60;;
3733;SDS011;1882;52.256;8.874;2023-01-19T02:29:32;15.80;;;9.60;;
3733;SDS011;1882;52.256;8.874;2023-01-19T02:31:59;16.03;;;9.60;;
3733;SDS011;1882;52.256;8.874;2023-01-19T02:34:36;16.63;;;9.57;;
3733;SDS011;1882;52.256;8.874;2023-01-19T02:37:08;15.50;;;9.40;;
3733;SDS011;1882;52.256;8.874;2023-01-19T02:42:51;14.73;;;9.20;;
3733;SDS011;1882;52.256;8.874;2023-01-19T02:45:19;16.33;;;9.57;;
3733;SDS011;1882;52.256;8.874;2023-01-19T02:47:47;19.47;;;10.30;;
3733;SDS011;1882;52.256;8.874;2023-01-19T02:53:09;14.47;;;9.23;;
3733;SDS011;1882;52.256;8.874;2023-01-19T02:55:43;16.33;;;10.17;;
3733;SDS011;1882;52.256;8.874;2023-01-19T03:00:51;18.43;;;9.40;;
3733;SDS011;1882;52.256;8.874;2023-01-19T03:03:50;19.73;;;10.00;;
3733;SDS011;1882;52.256;8.874;2023-01-19T03:06:52;20.73;;;10.97;;
3733;SDS011;1882;52.256;8.874;2023-01-19T03:09:28;19.37;;;10.63;;
3733;SDS011;1882;52.256;8.874;2023-01-19T03:12:03;16.87;;;10.10;;
3733;SDS011;1882;52.256;8.874;2023-01-19T03:14:36;26.17;;;10.20;;
3733;SDS011;1882;52.256;8.874;2023-01-19T03:17:07;20.70;;;10.50;;
3733;SDS011;1882;52.256;8.874;2023-01-19T03:19:39;20.33;;;9.60;;
3733;SDS011;1882;52.256;8.874;2023-01-19T03:22:09;17.90;;;9.90;;
3733;SDS011;1882;52.256;8.874;2023-01-19T03:24:39;18.63;;;10.73;;
3733;SDS011;1882;52.256;8.874;2023-01-19T03:27:42;23.03;;;10.70;;
3733;SDS011;1882;52.256;8.874;2023-01-19T03:30:14;16.47;;;10.30;;
3733;SDS011;1882;52.256;8.874;2023-01-19T03:32:46;19.37;;;10.70;;
3733;SDS011;1882;52.256;8.874;2023-01-19T03:35:18;17.87;;;10.23;;
3733;SDS011;1882;52.256;8.874;2023-01-19T03:37:50;23.00;;;10.10;;
3733;SDS011;1882;52.256;8.874;2023-01-19T03:40:19;20.20;;;10.20;;
3733;SDS011;1882;52.256;8.874;2023-01-19T03:42:46;14.70;;;9.43;;
3733;SDS011;1882;52.256;8.874;2023-01-19T03:45:17;18.90;;;10.10;;
3733;SDS011;1882;52.256;8.874;2023-01-19T03:47:44;20.63;;;10.13;;
3733;SDS011;1882;52.256;8.874;2023-01-19T03:50:17;16.23;;;9.83;;
3733;SDS011;1882;52.256;8.874;2023-01-19T03:52:59;16.10;;;9.17;;
3733;SDS011;1882;52.256;8.874;2023-01-19T03:55:31;19.97;;;10.27;;
3733;SDS011;1882;52.256;8.874;2023-01-19T03:57:57;18.13;;;10.83;;
3733;SDS011;1882;52.256;8.874;2023-01-19T04:00:24;19.20;;;10.20;;
3733;SDS011;1882;52.256;8.874;2023-01-19T04:02:51;19.37;;;10.20;;
3733;SDS011;1882;52.256;8.874;2023-01-19T04:05:18;24.63;;;10.03;;
3733;SDS011;1882;52.256;8.874;2023-01-19T04:07:50;20.63;;;10.47;;
3733;SDS011;1882;52.256;8.874;2023-01-19T04:10:17;18.83;;;9.90;;
3733;SDS011;1882;52.256;8.874;2023-01-19T04:12:44;19.93;;;9.83;;
3733;SDS011;1882;52.256;8.874;2023-01-19T04:15:14;17.20;;;9.60;;
3733;SDS011;1882;52.256;8.874;2023-01-19T04:17:48;16.90;;;9.50;;
3733;SDS011;1882;52.256;8.874;2023-01-19T04:20:17;22.07;;;10.73;;
3733;SDS011;1882;52.256;8.874;2023-01-19T04:22:45;20.00;;;9.80;;
3733;SDS011;1882;52.256;8.874;2023-01-19T04:25:14;18.80;;;10.40;;
3733;SDS011;1882;52.256;8.874;2023-01-19T04:27:50;19.57;;;10.60;;
3733;SDS011;1882;52.256;8.874;2023-01-19T04:30:23;16.53;;;9.80;;
3733;SDS011;1882;52.256;8.874;2023-01-19T04:32:50;16.00;;;9.20;;
3733;SDS011;1882;52.256;8.874;2023-01-19T04:35:17;16.90;;;10.00;;
3733;SDS011;1882;52.256;8.874;2023-01-19T04:37:46;18.67;;;10.83;;
3733;SDS011;1882;52.256;8.874;2023-01-19T04:40:13;15.80;;;9.03;;
3733;SDS011;1882;52.256;8.874;2023-01-19T04:42:47;18.63;;;9.50;;
3733;SDS011;1882;52.256;8.874;2023-01-19T04:45:14;15.60;;;8.90;;
3733;SDS011;1882;52.256;8.874;2023-01-19T04:47:43;22.13;;;10.47;;
3733;SDS011;1882;52.256;8.874;2023-01-19T04:50:15;18.10;;;9.10;;
3733;SDS011;1882;52.256;8.874;2023-01-19T04:52:45;20.40;;;9.77;;
3733;SDS011;1882;52.256;8.874;2023-01-19T04:55:17;16.00;;;8.93;;
3733;SDS011;1882;52.256;8.874;2023-01-19T04:57:47;17.10;;;9.93;;
3733;SDS011;1882;52.256;8.874;2023-01-19T05:00:16;13.80;;;8.80;;
3733;SDS011;1882;52.256;8.874;2023-01-19T05:02:46;15.00;;;9.20;;
3733;SDS011;1882;52.256;8.874;2023-01-19T05:05:13;18.07;;;9.77;;
3733;SDS011;1882;52.256;8.874;2023-01-19T05:07:43;17.10;;;8.27;;
3733;SDS011;1882;52.256;8.874;2023-01-19T05:10:20;25.90;;;9.90;;
3733;SDS011;1882;52.256;8.874;2023-01-19T05:12:47;21.77;;;9.83;;
3733;SDS011;1882;52.256;8.874;2023-01-19T05:15:14;17.23;;;8.43;;
3733;SDS011;1882;52.256;8.874;2023-01-19T05:17:51;23.23;;;9.07;;
3733;SDS011;1882;52.256;8.874;2023-01-19T05:20:18;13.53;;;8.40;;
3733;SDS011;1882;52.256;8.874;2023-01-19T05:22:48;14.40;;;9.43;;
3733;SDS011;1882;52.256;8.874;2023-01-19T05:25:25;17.53;;;8.93;;
3733;SDS011;1882;52.256;8.874;2023-01-19T05:27:51;17.70;;;9.50;;
3733;SDS011;1882;52.256;8.874;2023-01-19T05:30:18;16.67;;;9.27;;
3733;SDS011;1882;52.256;8.874;2023-01-19T05:32:45;17.90;;;9.37;;
3733;SDS011;1882;52.256;8.874;2023-01-19T05:35:14;15.73;;;8.93;;
3733;SDS011;1882;52.256;8.874;2023-01-19T05:37:50;17.80;;;9.03;;
3733;SDS011;1882;52.256;8.874;2023-01-19T05:40:17;23.27;;;8.93;;
3733;SDS011;1882;52.256;8.874;2023-01-19T05:42:47;13.13;;;7.83;;
3733;SDS011;1882;52.256;8.874;2023-01-19T05:45:14;20.73;;;9.10;;
3733;SDS011;1882;52.256;8.874;2023-01-19T05:47:41;15.60;;;8.63;;
3733;SDS011;1882;52.256;8.874;2023-01-19T05:50:21;15.00;;;8.43;;
3733;SDS011;1882;52.256;8.874;2023-01-19T05:52:51;14.87;;;7.60;;
3733;SDS011;1882;52.256;8.874;2023-01-19T05:55:28;19.93;;;8.60;;
3733;SDS011;1882;52.256;8.874;2023-01-19T05:57:55;17.63;;;8.93;;
3733;SDS011;1882;52.256;8.874;2023-01-19T06:00:21;16.30;;;8.90;;
3733;SDS011;1882;52.256;8.874;2023-01-19T06:02:48;17.30;;;8.40;;
3733;SDS011;1882;52.256;8.874;2023-01-19T06:05:15;17.00;;;8.13;;
3733;SDS011;1882;52.256;8.874;2023-01-19T06:07:48;14.40;;;8.70;;
3733;SDS011;1882;52.256;8.874;2023-01-19T06:10:31;16.67;;;8.80;;
3733;SDS011;1882;52.256;8.874;2023-01-19T06:12:57;18.57;;;7.70;;
3733;SDS011;1882;52.256;8.874;2023-01-19T06:15:24;15.30;;;8.77;;
3733;SDS011;1882;52.256;8.874;2023-01-19T06:17:51;15.00;;;8.33;;
3733;SDS011;1882;52.256;8.874;2023-01-19T06:20:25;14.23;;;7.93;;
3733;SDS011;1882;52.256;8.874;2023-01-19T06:22:52;12.37;;;7.77;;
3733;SDS011;1882;52.256;8.874;2023-01-19T06:25:22;14.47;;;8.50;;
3733;SDS011;1882;52.256;8.874;2023-01-19T06:28:03;18.90;;;8.30;;
3733;SDS011;1882;52.256;8.874;2023-01-19T06:30:32;12.50;;;7.80;;
3733;SDS011;1882;52.256;8.874;2023-01-19T06:32:58;14.70;;;7.87;;
3733;SDS011;1882;52.256;8.874;2023-01-19T06:35:28;14.20;;;7.97;;
3733;SDS011;1882;52.256;8.874;2023-01-19T06:37:55;12.10;;;7.27;;
3733;SDS011;1882;52.256;8.874;2023-01-19T06:43:25;13.83;;;7.70;;
3733;SDS011;1882;52.256;8.874;2023-01-19T06:46:41;15.30;;;8.23;;
3733;SDS011;1882;52.256;8.874;2023-01-19T06:49:08;14.20;;;7.83;;
3733;SDS011;1882;52.256;8.874;2023-01-19T06:51:40;14.07;;;7.70;;
3733;SDS011;1882;52.256;8.874;2023-01-19T06:54:13;14.70;;;7.40;;
3733;SDS011;1882;52.256;8.874;2023-01-19T06:56:40;16.67;;;7.73;;
3733;SDS011;1882;52.256;8.874;2023-01-19T06:59:07;17.97;;;8.60;;
3733;SDS011;1882;52.256;8.874;2023-01-19T07:01:35;13.90;;;7.83;;
3733;SDS011;1882;52.256;8.874;2023-01-19T07:04:30;14.20;;;7.80;;
3733;SDS011;1882;52.256;8.874;2023-01-19T07:07:00;15.87;;;8.03;;
3733;SDS011;1882;52.256;8.874;2023-01-19T07:09:44;16.20;;;7.60;;
3733;SDS011;1882;52.256;8.874;2023-01-19T07:12:13;18.23;;;8.77;;
3733;SDS011;1882;52.256;8.874;2023-01-19T07:14:41;11.73;;;7.90;;
3733;SDS011;1882;52.256;8.874;2023-01-19T07:17:27;14.03;;;7.87;;
3733;SDS011;1882;52.256;8.874;2023-01-19T07:19:54;11.10;;;7.40;;
3733;SDS011;1882;52.256;8.874;2023-01-19T07:22:26;13.07;;;7.33;;
3733;SDS011;1882;52.256;8.874;2023-01-19T07:27:51;12.63;;;6.90;;
3733;SDS011;1882;52.256;8.874;2023-01-19T07:33:11;11.57;;;7.70;;
3733;SDS011;1882;52.256;8.874;2023-01-19T07:35:38;11.87;;;7.67;;
3733;SDS011;1882;52.256;8.874;2023-01-19T07:38:04;11.67;;;7.50;;
3733;SDS011;1882;52.256;8.874;2023-01-19T07:40:31;13.07;;;7.63;;
3733;SDS011;1882;52.256;8.874;2023-01-19T07:43:28;13.77;;;7.60;;
3733;SDS011;1882;52.256;8.874;2023-01-19T07:46:09;14.27;;;7.60;;
3733;SDS011;1882;52.256;8.874;2023-01-19T07:48:39;12.40;;;7.10;;
3733;SDS011;1882;52.256;8.874;2023-01-19T07:51:09;10.93;;;7.13;;
3733;SDS011;1882;52.256;8.874;2023-01-19T07:53:38;9.53;;;6.47;;
3733;SDS011;1882;52.256;8.874;2023-01-19T07:56:15;10.37;;;6.90;;
3733;SDS011;1882;52.256;8.874;2023-01-19T07:58:51;12.60;;;7.20;;
3733;SDS011;1882;52.256;8.874;2023-01-19T08:01:18;11.27;;;7.30;;
3733;SDS011;1882;52.256;8.874;2023-01-19T08:03:46;9.73;;;6.80;;
3733;SDS011;1882;52.256;8.874;2023-01-19T08:06:25;9.30;;;6.90;;
3733;SDS011;1882;52.256;8.874;2023-01-19T08:08:58;10.90;;;7.43;;
3733;SDS011;1882;52.256;8.874;2023-01-19T08:11:25;9.73;;;6.73;;
3733;SDS011;1882;52.256;8.874;2023-01-19T08:13:52;12.97;;;7.30;;
3733;SDS011;1882;52.256;8.874;2023-01-19T08:16:19;15.03;;;7.83;;
3733;SDS011;1882;52.256;8.874;2023-01-19T08:19:03;10.07;;;7.40;;
3733;SDS011;1882;52.256;8.874;2023-01-19T08:21:31;8.27;;;6.67;;
3733;SDS011;1882;52.256;8.874;2023-01-19T08:27:15;11.90;;;7.37;;
3733;SDS011;1882;52.256;8.874;2023-01-19T08:29:54;9.43;;;6.90;;
3733;SDS011;1882;52.256;8.874;2023-01-19T08:32:21;10.43;;;7.23;;
3733;SDS011;1882;52.256;8.874;2023-01-19T08:34:48;10.97;;;7.97;;
3733;SDS011;1882;52.256;8.874;2023-01-19T08:37:14;8.70;;;6.93;;
3733;SDS011;1882;52.256;8.874;2023-01-19T08:39:41;10.83;;;8.00;;
3733;SDS011;1882;52.256;8.874;2023-01-19T08:42:07;11.80;;;8.13;;
3733;SDS011;1882;52.256;8.874;2023-01-19T08:44:34;9.93;;;7.40;;
3733;SDS011;1882;52.256;8.874;2023-01-19T08:47:06;11.60;;;7.80;;
3733;SDS011;1882;52.256;8.874;2023-01-19T08:49:41;12.10;;;8.10;;
3733;SDS011;1882;52.256;8.874;2023-01-19T08:52:09;11.90;;;7.87;;
3733;SDS011;1882;52.256;8.874;2023-01-19T08:54:36;11.77;;;8.07;;
3733;SDS011;1882;52.256;8.874;2023-01-19T08:57:03;10.20;;;6.80;;
3733;SDS011;1882;52.256;8.874;2023-01-19T08:59:29;11.00;;;7.87;;
3733;SDS011;1882;52.256;8.874;2023-01-19T09:01:59;11.93;;;8.33;;
3733;SDS011;1882;52.256;8.874;2023-01-19T09:04:29;12.03;;;8.23;;
3733;SDS011;1882;52.256;8.874;2023-01-19T09:06:59;12.00;;;7.80;;
3733;SDS011;1882;52.256;8.874;2023-01-19T09:13:02;13.50;;;8.60;;
3733;SDS011;1882;52.256;8.874;2023-01-19T09:15:41;12.27;;;7.60;;
3733;SDS011;1882;52.256;8.874;2023-01-19T09:18:10;11.20;;;7.73;;
3733;SDS011;1882;52.256;8.874;2023-01-19T09:20:39;11.93;;;7.83;;
3733;SDS011;1882;52.256;8.874;2023-01-19T09:23:08;14.60;;;7.73;;
3733;SDS011;1882;52.256;8.874;2023-01-19T09:25:36;14.27;;;9.13;;
3733;SDS011;1882;52.256;8.874;2023-01-19T09:28:04;16.13;;;9.20;;
3733;SDS011;1882;52.256;8.874;2023-01-19T09:30:32;13.30;;;8.50;;
3733;SDS011;1882;52.256;8.874;2023-01-19T09:33:02;11.60;;;7.80;;
3733;SDS011;1882;52.256;8.874;2023-01-19T09:35:32;11.10;;;7.73;;
3733;SDS011;1882;52.256;8.874;2023-01-19T09:37:59;13.47;;;9.20;;
3733;SDS011;1882;52.256;8.874;2023-01-19T09:40:26;14.50;;;8.60;;
3733;SDS011;1882;52.256;8.874;2023-01-19T09:45:58;14.37;;;9.23;;
3733;SDS011;1882;52.256;8.874;2023-01-19T09:51:13;12.03;;;8.30;;
3733;SDS011;1882;52.256;8.874;2023-01-19T09:56:29;12.27;;;7.77;;
3733;SDS011;1882;52.256;8.874;2023-01-19T10:10:27;14.03;;;9.70;;
3733;SDS011;1882;52.256;8.874;2023-01-19T10:13:17;15.63;;;9.03;;
3733;SDS011;1882;52.256;8.874;2023-01-19T10:18:33;12.20;;;8.37;;
3733;SDS011;1882;52.256;8.874;2023-01-19T10:21:18;11.37;;;7.70;;
3733;SDS011;1882;52.256;8.874;2023-01-19T10:23:57;13.03;;;7.60;;
3733;SDS011;1882;52.256;8.874;2023-01-19T10:31:45;10.37;;;7.70;;
3733;SDS011;1882;52.256;8.874;2023-01-19T10:34:39;20.47;;;7.50;;
3733;SDS011;1882;52.256;8.874;2023-01-19T10:37:17;10.30;;;7.57;;
3733;SDS011;1882;52.256;8.874;2023-01-19T10:39:53;12.70;;;8.33;;
3733;SDS011;1882;52.256;8.874;2023-01-19T10:42:29;11.37;;;8.17;;
3733;SDS011;1882;52.256;8.874;2023-01-19T10:44:56;11.00;;;7.70;;
3733;SDS011;1882;52.256;8.874;2023-01-19T10:47:25;11.70;;;7.83;;
3733;SDS011;1882;52.256;8.874;2023-01-19T10:49:56;11.83;;;7.37;;
3733;SDS011;1882;52.256;8.874;2023-01-19T10:52:33;14.53;;;8.60;;
3733;SDS011;1882;52.256;8.874;2023-01-19T10:58:29;12.37;;;7.97;;
3733;SDS011;1882;52.256;8.874;2023-01-19T11:01:01;10.90;;;7.03;;
3733;SDS011;1882;52.256;8.874;2023-01-19T11:03:48;9.50;;;6.53;;
3733;SDS011;1882;52.256;8.874;2023-01-19T11:08:52;13.87;;;7.47;;
3733;SDS011;1882;52.256;8.874;2023-01-19T11:14:33;12.00;;;6.07;;
3733;SDS011;1882;52.256;8.874;2023-01-19T11:17:00;8.00;;;5.93;;
3733;SDS011;1882;52.256;8.874;2023-01-19T11:19:28;9.90;;;5.97;;
3733;SDS011;1882;52.256;8.874;2023-01-19T11:22:19;8.90;;;6.10;;
3733;SDS011;1882;52.256;8.874;2023-01-19T11:24:56;11.40;;;6.20;;
3733;SDS011;1882;52.256;8.874;2023-01-19T11:31:16;14.70;;;6.47;;
3733;SDS011;1882;52.256;8.874;2023-01-19T11:33:51;8.90;;;5.73;;
3733;SDS011;1882;52.256;8.874;2023-01-19T11:43:29;10.40;;;6.37;;
3733;SDS011;1882;52.256;8.874;2023-01-19T11:46:42;12.57;;;6.63;;
3733;SDS011;1882;52.256;8.874;2023-01-19T11:57:24;11.13;;;6.37;;
3733;SDS011;1882;52.256;8.874;2023-01-19T11:59:51;14.03;;;6.60;;
3733;SDS011;1882;52.256;8.874;2023-01-19T12:02:21;11.00;;;6.30;;
3733;SDS011;1882;52.256;8.874;2023-01-19T12:19:43;11.40;;;6.33;;
3733;SDS011;1882;52.256;8.874;2023-01-19T12:39:29;18.40;;;8.83;;
3733;SDS011;1882;52.256;8.874;2023-01-19T12:42:24;13.90;;;5.90;;
3733;SDS011;1882;52.256;8.874;2023-01-19T12:45:05;24.70;;;9.73;;
3733;SDS011;1882;52.256;8.874;2023-01-19T12:50:44;13.90;;;6.20;;
3733;SDS011;1882;52.256;8.874;2023-01-19T12:53:15;15.43;;;6.00;;
3733;SDS011;1882;52.256;8.874;2023-01-19T12:55:45;13.77;;;6.10;;
3733;SDS011;1882;52.256;8.874;2023-01-19T12:58:25;13.27;;;6.50;;
3733;SDS011;1882;52.256;8.874;2023-01-19T13:01:12;15.33;;;5.87;;
3733;SDS011;1882;52.256;8.874;2023-01-19T13:03:45;15.87;;;6.50;;
3733;SDS011;1882;52.256;8.874;2023-01-19T13:09:33;13.80;;;6.47;;
3733;SDS011;1882;52.256;8.874;2023-01-19T13:18:06;28.67;;;11.93;;
3733;SDS011;1882;52.256;8.874;2023-01-19T13:21:24;17.10;;;6.70;;
3733;SDS011;1882;52.256;8.874;2023-01-19T13:24:21;17.97;;;7.10;;
3733;SDS011;1882;52.256;8.874;2023-01-19T13:27:08;16.77;;;6.27;;
3733;SDS011;1882;52.256;8.874;2023-01-19T13:29:57;14.83;;;6.43;;
3733;SDS011;1882;52.256;8.874;2023-01-19T13:32:53;13.43;;;5.67;;
3733;SDS011;1882;52.256;8.874;2023-01-19T13:39:35;11.00;;;5.83;;
3733;SDS011;1882;52.256;8.874;2023-01-19T13:49:48;14.50;;;6.13;;
3733;SDS011;1882;52.256;8.874;2023-01-19T13:59:03;32.53;;;12.63;;
3733;SDS011;1882;52.256;8.874;2023-01-19T14:02:10;17.80;;;8.27;;
3733;SDS011;1882;52.256;8.874;2023-01-19T14:14:45;20.03;;;6.73;;
3733;SDS011;1882;52.256;8.874;2023-01-19T14:18:04;16.17;;;7.47;;
3733;SDS011;1882;52.256;8.874;2023-01-19T14:20:33;16.13;;;6.10;;
3733;SDS011;1882;52.256;8.874;2023-01-19T14:27:37;23.80;;;7.07;;
3733;SDS011;1882;52.256;8.874;2023-01-19T14:30:25;22.70;;;8.07;;
3733;SDS011;1882;52.256;8.874;2023-01-19T14:41:39;15.80;;;6.90;;
3733;SDS011;1882;52.256;8.874;2023-01-19T14:47:37;19.63;;;8.00;;
3733;SDS011;1882;52.256;8.874;2023-01-19T14:50:19;16.53;;;8.07;;
3733;SDS011;1882;52.256;8.874;2023-01-19T14:59:32;17.73;;;8.60;;
3733;SDS011;1882;52.256;8.874;2023-01-19T15:02:52;20.57;;;8.83;;
3733;SDS011;1882;52.256;8.874;2023-01-19T15:05:21;24.53;;;9.63;;
3733;SDS011;1882;52.256;8.874;2023-01-19T15:07:51;22.87;;;9.63;;
3733;SDS011;1882;52.256;8.874;2023-01-19T15:10:21;21.43;;;9.70;;
3733;SDS011;1882;52.256;8.874;2023-01-19T15:12:49;24.30;;;11.03;;
3733;SDS011;1882;52.256;8.874;2023-01-19T15:15:22;22.63;;;10.27;;
3733;SDS011;1882;52.256;8.874;2023-01-19T15:17:53;24.13;;;10.37;;
3733;SDS011;1882;52.256;8.874;2023-01-19T15:20:21;25.00;;;11.17;;
3733;SDS011;1882;52.256;8.874;2023-01-19T15:22:51;29.00;;;11.23;;
3733;SDS011;1882;52.256;8.874;2023-01-19T15:28:46;20.23;;;10.00;;
3733;SDS011;1882;52.256;8.874;2023-01-19T15:34:39;23.77;;;11.33;;
3733;SDS011;1882;52.256;8.874;2023-01-19T15:37:06;27.07;;;11.20;;
3733;SDS011;1882;52.256;8.874;2023-01-19T15:39:33;29.73;;;11.30;;
3733;SDS011;1882;52.256;8.874;2023-01-19T15:42:13;26.73;;;11.37;;
3733;SDS011;1882;52.256;8.874;2023-01-19T15:44:51;24.03;;;10.77;;
3733;SDS011;1882;52.256;8.874;2023-01-19T15:47:18;22.23;;;10.83;;
3733;SDS011;1882;52.256;8.874;2023-01-19T15:49:45;23.10;;;10.33;;
3733;SDS011;1882;52.256;8.874;2023-01-19T15:52:12;24.70;;;11.97;;
3733;SDS011;1882;52.256;8.874;2023-01-19T15:54:41;23.43;;;11.27;;
3733;SDS011;1882;52.256;8.874;2023-01-19T15:57:10;21.17;;;11.17;;
3733;SDS011;1882;52.256;8.874;2023-01-19T15:59:38;26.47;;;10.37;;
3733;SDS011;1882;52.256;8.874;2023-01-19T16:02:05;27.10;;;10.40;;
3733;SDS011;1882;52.256;8.874;2023-01-19T16:04:39;27.90;;;11.20;;
3733;SDS011;1882;52.256;8.874;2023-01-19T16:07:06;28.97;;;11.23;;
3733;SDS011;1882;52.256;8.874;2023-01-19T16:09:32;29.70;;;11.37;;
3733;SDS011;1882;52.256;8.874;2023-01-19T16:11:59;25.63;;;11.97;;
3733;SDS011;1882;52.256;8.874;2023-01-19T16:14:37;24.80;;;10.23;;
3733;SDS011;1882;52.256;8.874;2023-01-19T16:17:04;28.80;;;12.30;;
3733;SDS011;1882;52.256;8.874;2023-01-19T16:19:31;31.57;;;12.03;;
3733;SDS011;1882;52.256;8.874;2023-01-19T16:21:57;33.93;;;12.63;;
3733;SDS011;1882;52.256;8.874;2023-01-19T16:24:32;30.30;;;11.47;;
3733;SDS011;1882;52.256;8.874;2023-01-19T16:26:58;25.50;;;12.43;;
3733;SDS011;1882;52.256;8.874;2023-01-19T16:29:25;30.83;;;12.30;;
3733;SDS011;1882;52.256;8.874;2023-01-19T16:31:52;31.70;;;14.30;;
3733;SDS011;1882;52.256;8.874;2023-01-19T16:34:19;27.67;;;12.40;;
3733;SDS011;1882;52.256;8.874;2023-01-19T16:36:46;26.40;;;12.50;;
3733;SDS011;1882;52.256;8.874;2023-01-19T16:39:13;26.70;;;12.67;;
3733;SDS011;1882;52.256;8.874;2023-01-19T16:41:41;39.37;;;12.47;;
3733;SDS011;1882;52.256;8.874;2023-01-19T16:44:09;28.40;;;12.43;;
3733;SDS011;1882;52.256;8.874;2023-01-19T16:46:38;36.43;;;13.33;;
3733;SDS011;1882;52.256;8.874;2023-01-19T16:49:13;30.40;;;12.60;;
3733;SDS011;1882;52.256;8.874;2023-01-19T16:51:43;33.97;;;13.50;;
3733;SDS011;1882;52.256;8.874;2023-01-19T16:54:11;32.97;;;13.47;;
3733;SDS011;1882;52.256;8.874;2023-01-19T16:56:42;29.97;;;13.67;;
3733;SDS011;1882;52.256;8.874;2023-01-19T16:59:10;27.87;;;14.40;;
3733;SDS011;1882;52.256;8.874;2023-01-19T17:01:40;28.50;;;13.30;;
3733;SDS011;1882;52.256;8.874;2023-01-19T17:04:07;33.33;;;13.67;;
3733;SDS011;1882;52.256;8.874;2023-01-19T17:06:33;26.70;;;13.17;;
3733;SDS011;1882;52.256;8.874;2023-01-19T17:09:00;38.37;;;14.37;;
3733;SDS011;1882;52.256;8.874;2023-01-19T17:11:29;38.23;;;15.43;;
3733;SDS011;1882;52.256;8.874;2023-01-19T17:14:00;34.13;;;13.73;;
3733;SDS011;1882;52.256;8.874;2023-01-19T17:16:29;40.97;;;15.33;;
3733;SDS011;1882;52.256;8.874;2023-01-19T17:18:57;35.57;;;14.10;;
3733;SDS011;1882;52.256;8.874;2023-01-19T17:21:25;34.20;;;14.97;;
3733;SDS011;1882;52.256;8.874;2023-01-19T17:23:55;36.30;;;15.50;;
3733;SDS011;1882;52.256;8.874;2023-01-19T17:26:23;38.80;;;15.47;;
3733;SDS011;1882;52.256;8.874;2023-01-19T17:29:00;40.73;;;15.47;;
3733;SDS011;1882;52.256;8.874;2023-01-19T17:31:27;42.23;;;16.17;;
3733;SDS011;1882;52.256;8.874;2023-01-19T17:33:55;46.70;;;16.67;;
3733;SDS011;1882;52.256;8.874;2023-01-19T17:36:22;40.63;;;16.07;;
3733;SDS011;1882;52.256;8.874;2023-01-19T17:38:51;38.17;;;16.63;;
3733;SDS011;1882;52.256;8.874;2023-01-19T17:41:20;42.77;;;16.23;;
3733;SDS011;1882;52.256;8.874;2023-01-19T17:43:48;40.93;;;16.80;;
3733;SDS011;1882;52.256;8.874;2023-01-19T17:46:18;48.77;;;16.30;;
3733;SDS011;1882;52.256;8.874;2023-01-19T17:48:49;45.60;;;17.80;;
3733;SDS011;1882;52.256;8.874;2023-01-19T17:51:19;42.57;;;17.07;;
3733;SDS011;1882;52.256;8.874;2023-01-19T17:53:48;44.93;;;18.10;;
3733;SDS011;1882;52.256;8.874;2023-01-19T17:56:16;46.30;;;18.03;;
3733;SDS011;1882;52.256;8.874;2023-01-19T17:58:47;41.27;;;16.33;;
3733;SDS011;1882;52.256;8.874;2023-01-19T18:03:44;45.00;;;18.57;;
3733;SDS011;1882;52.256;8.874;2023-01-19T18:06:18;54.17;;;18.70;;
3733;SDS011;1882;52.256;8.874;2023-01-19T18:08:45;45.47;;;19.70;;
3733;SDS011;1882;52.256;8.874;2023-01-19T18:11:12;50.40;;;19.27;;
3733;SDS011;1882;52.256;8.874;2023-01-19T18:13:41;48.93;;;19.20;;
3733;SDS011;1882;52.256;8.874;2023-01-19T18:16:12;46.70;;;18.10;;
3733;SDS011;1882;52.256;8.874;2023-01-19T18:18:40;48.03;;;17.70;;
3733;SDS011;1882;52.256;8.874;2023-01-19T18:21:08;47.60;;;19.53;;
3733;SDS011;1882;52.256;8.874;2023-01-19T18:23:43;44.97;;;19.63;;
3733;SDS011;1882;52.256;8.874;2023-01-19T18:26:14;53.90;;;19.50;;
3733;SDS011;1882;52.256;8.874;2023-01-19T18:28:42;46.60;;;19.97;;
3733;SDS011;1882;52.256;8.874;2023-01-19T18:31:16;50.03;;;20.20;;
3733;SDS011;1882;52.256;8.874;2023-01-19T18:33:45;49.07;;;20.13;;
3733;SDS011;1882;52.256;8.874;2023-01-19T18:36:12;50.50;;;19.30;;
3733;SDS011;1882;52.256;8.874;2023-01-19T18:38:50;45.77;;;19.83;;